Terminal Aerodrome Forecast
Issued by NWS Upton, NY

Home | Current Version | Previous Version | Text Only | Print | Product List | Glossary On
Versions: 1 2 3 4 5 6 7 8 9 10 11 12 13 14 15 16 17 18 19 20 21 22 23 24 25 26 27 28 29 30 31 32 33 34 35
186
FTUS41 KOKX 290805 AAA
TAFBDR
TAF AMD
KBDR 290805Z 2908/3006 36005KT P6SM SCT015 BKN025
      TEMPO 2908/2910 BKN015
     FM291000 35008KT P6SM SCT025 BKN045
     FM291200 34010G17KT P6SM FEW035 BKN050
     FM291500 34013G20KT P6SM SCT040 SCT250
     FM300000 35010KT P6SM FEW250=

USA.gov is the U.S. government's official web portal to all federal, state and local government web resources and services.